Time;durP1;ratioP1;P1;durP2;ratioP2;P2;SDS_P1;SDS_P2;PMS_P1;PMS_P2;Temp;Humidity;BMP_temperature;BMP_pressure;BME280_temperature;BME280_humidity;BME280_pressure;Samples;Min_cycle;Max_cycle;Signal;HPM_P1;HPM_P2
2022/01/05 00:00:09;;;;;;;4.50;3.15;;;;;;;10.49;69.86;99999.53;4934607;28;102328;-49
2022/01/05 00:02:37;;;;;;;6.03;3.42;;;;;;;10.49;70.31;99994.91;4933818;28;104181;-48
2022/01/05 00:05:04;;;;;;;5.50;3.00;;;;;;;10.49;70.41;99992.19;4934471;28;102473;-49
2022/01/05 00:07:32;;;;;;;5.38;3.55;;;;;;;10.50;70.72;99993.00;4928718;28;102258;-50
2022/01/05 00:10:01;;;;;;;5.22;3.20;;;;;;;10.49;70.14;99997.63;4932070;28;103679;-49
2022/01/05 00:12:27;;;;;;;;;;;;;;;10.50;70.07;99995.72;4928337;28;103847;-49
2022/01/05 00:14:54;;;;;;;6.20;3.35;;;;;;;10.49;69.96;100004.97;4931698;28;102347;-49
2022/01/05 00:17:20;;;;;;;4.03;3.22;;;;;;;10.50;69.76;99995.72;4934143;28;102331;-49
2022/01/05 00:19:47;;;;;;;6.50;3.78;;;;;;;10.49;70.05;99999.53;4932267;28;102306;-49
2022/01/05 00:22:13;;;;;;;5.90;3.53;;;;;;;10.49;69.77;99994.91;4932675;28;104056;-49
2022/01/05 00:24:41;;;;;;;3.92;3.05;;;;;;;10.50;70.39;99996.53;4946661;28;102554;-49
2022/01/05 00:27:07;;;;;;;5.07;3.53;;;;;;;10.49;70.55;99994.91;4938363;28;102206;-49
2022/01/05 00:29:34;;;;;;;6.47;3.80;;;;;;;10.50;70.03;99990.28;4957341;28;102166;-49
2022/01/05 00:32:00;;;;;;;6.28;3.58;;;;;;;10.50;69.79;99995.72;4955480;28;104064;-49
2022/01/05 00:34:27;;;;;;;4.80;3.28;;;;;;;10.50;69.83;99995.72;4943587;28;102812;-49
2022/01/05 00:36:53;;;;;;;5.00;3.22;;;;;;;10.50;70.26;99990.28;4953795;28;106454;-49
2022/01/05 00:39:19;;;;;;;4.30;3.10;;;;;;;10.49;70.12;99997.63;4941054;28;102247;-49
2022/01/05 00:41:47;;;;;;;4.15;2.92;;;;;;;10.49;70.45;99994.91;4946624;28;104127;-49
2022/01/05 00:44:13;;;;;;;5.35;3.40;;;;;;;10.51;69.97;99994.63;4951098;28;102392;-49
2022/01/05 00:46:40;;;;;;;4.63;3.05;;;;;;;10.50;70.37;99995.72;4945492;28;102337;-49
2022/01/05 00:49:06;;;;;;;5.43;3.47;;;;;;;10.51;69.92;100002.78;4952212;28;103122;-49
2022/01/05 00:51:33;;;;;;;6.18;3.25;;;;;;;10.50;70.02;99995.72;4920821;28;103951;-49
2022/01/05 00:54:00;;;;;;;6.65;3.45;;;;;;;10.52;70.34;99996.25;4935769;28;102228;-49
2022/01/05 00:56:26;;;;;;;3.90;3.30;;;;;;;10.49;70.37;99983.22;4940223;28;105560;-49
2022/01/05 00:58:54;;;;;;;6.18;2.97;;;;;;;10.51;69.97;99989.19;4953843;28;103909;-49
2022/01/05 01:01:21;;;;;;;4.40;2.92;;;;;;;10.52;70.20;99988.06;4937239;28;103930;-49
2022/01/05 01:03:48;;;;;;;4.55;2.92;;;;;;;10.50;70.52;99982.13;4951595;28;102193;-49
2022/01/05 01:06:14;;;;;;;4.38;2.92;;;;;;;10.50;69.86;99998.47;4949339;28;102170;-49
2022/01/05 01:08:40;;;;;;;4.25;3.05;;;;;;;10.50;70.01;99993.00;4955213;28;102209;-49
2022/01/05 01:11:07;;;;;;;5.38;3.28;;;;;;;10.50;70.38;99984.84;4949257;28;103660;-49
2022/01/05 01:13:34;;;;;;;4.03;2.90;;;;;;;10.52;70.15;99985.34;4949288;28;102420;-49
2022/01/05 01:16:02;;;;;;;4.95;3.33;;;;;;;10.52;69.85;99977.19;4953098;28;102337;-49
2022/01/05 01:18:30;;;;;;;5.10;3.30;;;;;;;10.51;70.44;99975.59;4954104;28;102376;-49
2022/01/05 01:20:57;;;;;;;4.20;2.92;;;;;;;10.51;70.12;99975.59;4981919;28;103979;-49
2022/01/05 01:23:24;;;;;;;4.78;3.10;;;;;;;10.51;70.23;99967.41;4955000;28;103062;-49
2022/01/05 01:25:51;;;;;;;3.38;3.00;;;;;;;10.52;70.01;99977.19;4944125;28;102351;-49
2022/01/05 01:28:17;;;;;;;3.75;3.22;;;;;;;10.51;70.06;99987.28;4953459;28;102185;-49
2022/01/05 01:30:44;;;;;;;5.32;2.83;;;;;;;10.52;70.37;99996.25;4933527;28;103850;-49
2022/01/05 01:33:12;;;;;;;4.15;2.72;;;;;;;10.52;70.11;99990.78;4942146;28;102151;-49
2022/01/05 01:35:38;;;;;;;5.07;3.35;;;;;;;10.51;70.49;99995.44;4951377;28;102544;-52
2022/01/05 01:38:05;;;;;;;5.43;3.28;;;;;;;10.51;70.03;99976.38;4927768;28;102854;-49
2022/01/05 01:40:32;;;;;;;4.88;3.08;;;;;;;10.51;70.06;99964.69;4934877;28;103870;-49
2022/01/05 01:42:59;;;;;;;4.70;3.17;;;;;;;10.51;69.80;99960.06;4954318;28;102791;-49
2022/01/05 01:45:26;;;;;;;4.03;3.00;;;;;;;10.51;70.02;99968.22;4945390;28;103368;-49
2022/01/05 01:47:53;;;;;;;4.20;3.08;;;;;;;10.52;70.38;99975.28;4930628;28;102463;-49
2022/01/05 01:50:20;;;;;;;6.47;3.25;;;;;;;10.52;70.11;99974.47;4948109;28;103846;-49
2022/01/05 01:52:47;;;;;;;4.07;2.70;;;;;;;10.53;70.15;99973.38;4952267;28;102206;-50
2022/01/05 01:55:14;;;;;;;3.80;2.72;;;;;;;10.52;70.13;99977.19;4953334;28;103870;-50
2022/01/05 01:57:43;;;;;;;4.65;2.85;;;;;;;10.52;70.46;99985.34;4943574;28;102555;-49
2022/01/05 02:00:11;;;;;;;4.82;3.00;;;;;;;10.52;70.49;99985.34;4934066;28;103896;-49
2022/01/05 02:02:38;;;;;;;4.43;3.30;;;;;;;10.52;70.00;99982.63;4949510;28;102393;-49
2022/01/05 02:05:07;;;;;;;5.25;3.05;;;;;;;10.52;70.52;99977.19;4936242;28;102202;-49
2022/01/05 02:07:35;;;;;;;4.20;3.00;;;;;;;10.51;70.20;99960.06;4955454;28;102289;-49
2022/01/05 02:10:02;;;;;;;4.40;2.97;;;;;;;10.52;70.51;99950.00;4954127;28;103701;-51
2022/01/05 02:12:29;;;;;;;4.50;3.08;;;;;;;10.52;70.19;99955.44;4945863;28;102338;-50
2022/01/05 02:14:56;;;;;;;3.80;3.00;;;;;;;10.52;70.01;99939.09;4935237;28;102649;-49
2022/01/05 02:17:30;;;;;;;5.22;3.40;;;;;;;10.53;69.96;99929.84;4950635;28;102119;-50
2022/01/05 02:19:56;;;;;;;3.60;2.88;;;;;;;10.52;70.64;99926.31;4940207;28;104194;-49
2022/01/05 02:22:24;;;;;;;3.92;2.80;;;;;;;10.52;70.49;99922.78;4955015;28;102971;-50
2022/01/05 02:24:50;;;;;;;4.60;3.13;;;;;;;10.52;70.43;99915.44;4949196;28;102425;-50
2022/01/05 02:27:17;;;;;;;5.00;3.17;;;;;;;10.53;70.11;99916.22;4948028;28;102228;-50
2022/01/05 02:29:45;;;;;;;5.40;3.30;;;;;;;10.51;70.20;99916.53;4955696;28;104928;-49
2022/01/05 02:32:11;;;;;;;4.22;3.20;;;;;;;10.53;70.25;99910.78;4955218;28;102195;-50
2022/01/05 02:34:40;;;;;;;4.72;3.10;;;;;;;10.53;69.93;99902.63;4948020;28;102539;-49
2022/01/05 02:37:07;;;;;;;5.07;3.05;;;;;;;10.53;70.49;99908.91;4957378;28;102618;-49
2022/01/05 02:39:35;;;;;;;4.07;2.83;;;;;;;10.52;70.50;99906.47;4955999;28;103913;-49
2022/01/05 02:42:02;;;;;;;4.03;2.95;;;;;;;10.53;70.39;99903.47;4947618;28;102197;-49
2022/01/05 02:44:29;;;;;;;4.15;3.05;;;;;;;10.53;70.11;99913.50;4916765;28;102477;-49
2022/01/05 02:46:55;;;;;;;4.45;3.33;;;;;;;10.53;70.49;99908.91;4952683;28;102308;-50
2022/01/05 02:49:21;;;;;;;5.63;3.45;;;;;;;10.53;70.35;99897.19;4949552;28;104023;-49
2022/01/05 02:51:48;;;;;;;5.03;3.13;;;;;;;10.53;70.71;99894.47;4977626;28;102135;-49
2022/01/05 02:54:14;;;;;;;4.50;3.20;;;;;;;10.53;70.49;99891.75;4936514;28;102178;-49
2022/01/05 02:56:42;;;;;;;4.30;3.60;;;;;;;10.52;70.04;99887.41;4913457;28;102360;-49
2022/01/05 02:59:08;;;;;;;6.18;3.25;;;;;;;10.53;70.44;99880.88;4935714;28;103879;-49
2022/01/05 03:01:36;;;;;;;3.03;2.72;;;;;;;10.53;70.19;99886.31;4932684;28;102158;-49
2022/01/05 03:04:04;;;;;;;4.28;3.30;;;;;;;10.53;69.93;99886.31;4931836;28;104606;-50
2022/01/05 03:06:32;;;;;;;4.03;2.70;;;;;;;10.53;70.25;99883.59;4939310;28;102260;-49
2022/01/05 03:08:58;;;;;;;4.18;3.17;;;;;;;10.53;70.26;99883.59;4950954;28;103558;-50
2022/01/05 03:11:25;;;;;;;4.85;3.45;;;;;;;10.53;70.48;99886.31;4953283;28;102658;-49
2022/01/05 03:13:53;;;;;;;3.40;3.00;;;;;;;10.52;70.17;99879.25;4953313;28;104418;-49
2022/01/05 03:16:19;;;;;;;5.75;3.22;;;;;;;10.53;70.56;99876.25;4954970;28;102560;-50
2022/01/05 03:18:46;;;;;;;5.63;2.85;;;;;;;10.53;70.54;99873.53;4933543;28;103904;-50
2022/01/05 03:21:12;;;;;;;4.40;3.22;;;;;;;10.52;70.08;99880.06;4943806;28;102384;-49
2022/01/05 03:23:39;;;;;;;5.18;3.30;;;;;;;10.53;70.52;99878.16;4942227;28;102234;-50
2022/01/05 03:26:05;;;;;;;4.03;2.95;;;;;;;10.52;70.56;99887.41;4935208;28;102219;-49
2022/01/05 03:28:31;;;;;;;5.30;3.10;;;;;;;10.53;70.13;99880.88;4933117;28;103921;-50
2022/01/05 03:31:00;;;;;;;3.90;2.97;;;;;;;10.52;70.20;99879.25;4931913;28;102410;-50
2022/01/05 03:33:26;;;;;;;6.30;3.10;;;;;;;10.52;70.54;99879.25;4941013;28;102898;-49
2022/01/05 03:35:53;;;;;;;4.57;3.30;;;;;;;10.53;70.20;99875.44;4951637;28;102482;-49
2022/01/05 03:38:20;;;;;;;4.30;2.88;;;;;;;10.53;70.20;99869.97;4942225;28;103954;-50
2022/01/05 03:40:47;;;;;;;3.78;2.90;;;;;;;10.52;70.37;99868.38;4954937;28;102542;-49
2022/01/05 03:43:14;;;;;;;3.55;3.00;;;;;;;10.53;70.64;99889.03;4937772;28;103498;-50
2022/01/05 03:45:42;;;;;;;6.55;3.22;;;;;;;10.53;70.21;99891.75;4932605;28;102666;-49
2022/01/05 03:48:11;;;;;;;4.25;2.95;;;;;;;10.52;70.22;99882.78;4949778;28;103865;-50
2022/01/05 03:50:38;;;;;;;5.30;3.50;;;;;;;10.52;69.97;99881.97;4955829;28;101971;-50
2022/01/05 03:53:06;;;;;;;5.03;3.00;;;;;;;10.53;70.39;99883.59;4954389;28;103790;-50
2022/01/05 03:55:34;;;;;;;4.45;2.90;;;;;;;10.52;70.68;99873.81;4941046;28;102448;-49
2022/01/05 03:58:02;;;;;;;5.05;2.83;;;;;;;10.53;70.52;99878.97;4955300;28;104010;-50
2022/01/05 04:00:30;;;;;;;5.13;3.40;;;;;;;10.53;70.22;99869.97;4950865;28;102767;-49
2022/01/05 04:02:56;;;;;;;4.93;2.88;;;;;;;10.53;70.17;99880.88;4950410;28;102396;-49
2022/01/05 04:05:24;;;;;;;3.65;3.10;;;;;;;10.53;70.47;99880.88;4954365;28;102109;-49
2022/01/05 04:07:51;;;;;;;4.30;3.13;;;;;;;10.53;70.08;99869.97;4944218;28;103969;-49
2022/01/05 04:10:18;;;;;;;3.05;2.75;;;;;;;10.53;70.34;99872.69;4936460;28;102669;-49
2022/01/05 04:12:46;;;;;;;3.85;2.88;;;;;;;10.52;70.56;99877.34;4940372;28;102090;-49
2022/01/05 04:15:13;;;;;;;5.22;3.45;;;;;;;10.54;70.36;99882.50;4937291;28;102198;-49
2022/01/05 04:17:39;;;;;;;5.10;3.38;;;;;;;10.52;70.24;99874.63;4951282;28;103870;-49
2022/01/05 04:20:06;;;;;;;4.60;2.85;;;;;;;10.52;70.06;99874.63;4951829;28;103406;-50
2022/01/05 04:22:34;;;;;;;5.15;2.83;;;;;;;10.53;70.13;99880.88;4938754;28;102224;-49
2022/01/05 04:25:01;;;;;;;4.35;3.50;;;;;;;10.53;70.07;99875.44;4952918;28;104072;-49
2022/01/05 04:27:27;;;;;;;4.03;2.92;;;;;;;10.53;70.16;99876.25;4931534;28;103897;-49
2022/01/05 04:29:54;;;;;;;5.15;3.17;;;;;;;10.54;70.23;99868.91;4947142;28;102485;-50
2022/01/05 04:32:21;;;;;;;4.65;3.10;;;;;;;10.53;70.43;99869.97;4941102;28;102232;-49
2022/01/05 04:34:47;;;;;;;3.53;3.00;;;;;;;10.53;70.49;99873.53;4955294;28;103108;-49
2022/01/05 04:37:14;;;;;;;6.05;3.22;;;;;;;10.54;70.10;99855.31;4950520;28;103920;-49
2022/01/05 04:39:42;;;;;;;4.18;3.10;;;;;;;10.53;70.29;99864.53;4946370;28;102248;-49
2022/01/05 04:42:08;;;;;;;4.32;3.00;;;;;;;10.53;70.60;99861.81;4950943;28;102379;-50
2022/01/05 04:44:35;;;;;;;3.90;3.17;;;;;;;10.52;70.00;99857.50;4948799;28;102833;-49
2022/01/05 04:47:02;;;;;;;4.15;2.95;;;;;;;10.53;70.27;99859.09;4932517;28;104105;-50
2022/01/05 04:49:29;;;;;;;4.00;2.80;;;;;;;10.53;70.18;99869.97;4938778;28;102657;-49
2022/01/05 04:51:56;;;;;;;3.50;3.00;;;;;;;10.53;70.52;99872.69;4942595;28;102273;-49
2022/01/05 04:54:23;;;;;;;5.72;3.35;;;;;;;10.53;70.59;99883.59;4941225;28;102187;-49
2022/01/05 04:56:51;;;;;;;6.95;3.60;;;;;;;10.54;70.30;99877.06;4936318;28;103910;-49
2022/01/05 04:59:17;;;;;;;6.25;3.40;;;;;;;10.54;70.64;99871.63;4933310;28;102208;-49
2022/01/05 05:01:44;;;;;;;3.83;3.00;;;;;;;10.53;70.49;99875.44;4943834;28;102267;-49
2022/01/05 05:04:10;;;;;;;5.45;3.42;;;;;;;10.53;70.38;99881.69;4954082;28;102712;-49
2022/01/05 05:06:37;;;;;;;3.20;2.90;;;;;;;10.54;70.60;99877.06;4951071;28;103912;-49
2022/01/05 05:09:04;;;;;;;4.07;2.70;;;;;;;10.53;70.25;99886.31;4950929;28;102371;-49
2022/01/05 05:11:30;;;;;;;4.45;3.20;;;;;;;10.54;70.20;99883.31;4950692;28;102067;-49
2022/01/05 05:13:58;;;;;;;4.20;3.08;;;;;;;10.53;70.15;99880.88;4944954;28;102316;-50
2022/01/05 05:16:25;;;;;;;5.55;3.08;;;;;;;10.54;70.68;99893.38;4945255;28;103991;-49
2022/01/05 05:18:51;;;;;;;4.30;3.38;;;;;;;10.54;70.16;99890.66;4949853;28;103058;-49
2022/01/05 05:21:18;;;;;;;4.85;3.85;;;;;;;10.53;70.49;99891.75;4952597;28;102352;-49
2022/01/05 05:23:44;;;;;;;4.38;3.25;;;;;;;10.55;70.35;99900.44;4945273;28;102786;-49
2022/01/05 05:26:10;;;;;;;5.90;3.40;;;;;;;10.53;70.05;99902.63;4948200;28;104066;-49
2022/01/05 05:28:37;;;;;;;5.22;3.45;;;;;;;10.53;70.64;99903.47;4948109;28;102572;-49
2022/01/05 05:31:10;;;;;;;3.63;3.10;;;;;;;10.54;70.37;99904.28;4945238;28;102519;-49
2022/01/05 05:33:36;;;;;;;4.00;3.30;;;;;;;10.54;70.54;99905.06;4951558;28;102389;-49
2022/01/05 05:36:03;;;;;;;4.68;3.42;;;;;;;10.54;70.26;99909.72;4952001;28;103888;-49
2022/01/05 05:38:30;;;;;;;6.28;3.88;;;;;;;10.54;70.15;99907.78;4950036;28;102442;-49
2022/01/05 05:40:56;;;;;;;4.97;3.28;;;;;;;10.53;70.19;99906.19;4948821;28;102787;-49
2022/01/05 05:43:23;;;;;;;5.20;3.50;;;;;;;10.54;70.18;99909.72;4950667;28;102347;-49
2022/01/05 05:45:49;;;;;;;4.93;3.22;;;;;;;10.53;70.48;99898.03;4949649;28;104007;-49
2022/01/05 05:48:17;;;;;;;6.50;3.50;;;;;;;10.54;70.03;99887.94;4940270;28;102265;-50
2022/01/05 05:50:43;;;;;;;5.40;3.55;;;;;;;10.55;70.19;99900.44;4939674;28;102423;-49
2022/01/05 05:53:09;;;;;;;4.78;3.55;;;;;;;10.55;70.35;99906.69;4951298;28;102863;-49
2022/01/05 05:55:36;;;;;;;4.05;3.33;;;;;;;10.56;70.81;99908.31;4946595;28;104912;-49
2022/01/05 05:58:02;;;;;;;3.92;3.38;;;;;;;10.55;70.49;99905.88;4950635;28;102434;-49
2022/01/05 06:00:31;;;;;;;3.78;3.00;;;;;;;10.55;70.33;99912.13;4945486;28;102300;-49
2022/01/05 06:02:59;;;;;;;4.15;3.30;;;;;;;10.55;70.55;99927.66;4951370;28;102296;-50
2022/01/05 06:05:27;;;;;;;4.45;3.60;;;;;;;10.55;70.33;99933.09;4950788;28;104308;-49
2022/01/05 06:07:53;;;;;;;5.15;3.55;;;;;;;10.55;70.28;99943.97;4949767;28;102743;-49
2022/01/05 06:10:20;;;;;;;4.43;3.35;;;;;;;10.56;70.91;99945.59;4949240;28;102216;-49
2022/01/05 06:12:46;;;;;;;4.53;3.60;;;;;;;10.57;70.37;99949.94;4930666;28;103823;-49
2022/01/05 06:15:13;;;;;;;5.13;3.45;;;;;;;10.56;70.18;99951.03;4930231;28;104236;-49
2022/01/05 06:17:39;;;;;;;4.78;3.50;;;;;;;10.57;70.33;99939.06;4932027;28;102671;-50
2022/01/05 06:20:12;;;;;;;5.10;3.70;;;;;;;10.57;70.47;99947.22;4944960;28;102484;-49
2022/01/05 06:22:42;;;;;;;6.43;3.50;;;;;;;10.56;70.57;99942.88;4954151;28;102157;-49
2022/01/05 06:25:10;;;;;;;4.88;3.55;;;;;;;10.57;70.77;99947.22;4939494;28;104118;-49
2022/01/05 06:27:37;;;;;;;5.27;3.37;;;;;;;10.57;70.27;99944.50;4922001;28;102196;-49
2022/01/05 06:30:06;;;;;;;5.55;3.88;;;;;;;10.57;70.22;99939.06;4946887;28;102655;-49
2022/01/05 06:32:34;;;;;;;4.85;3.53;;;;;;;10.58;70.38;99943.41;4952927;28;103725;-50
2022/01/05 06:35:01;;;;;;;5.05;3.58;;;;;;;10.58;70.33;99941.47;4934975;28;104118;-49
2022/01/05 06:37:27;;;;;;;3.95;2.88;;;;;;;10.58;70.56;99937.97;4946281;28;104518;-50
2022/01/05 06:39:55;;;;;;;4.68;3.55;;;;;;;10.58;70.15;99937.97;4944921;28;102370;-49
2022/01/05 06:42:22;;;;;;;3.42;3.08;;;;;;;10.59;70.28;99939.56;4925273;28;102245;-49
2022/01/05 06:44:49;;;;;;;5.68;3.50;;;;;;;10.60;70.37;99946.63;4949689;28;104100;-49
2022/01/05 06:47:15;;;;;;;4.30;3.25;;;;;;;10.58;70.78;99944.19;4945841;28;102240;-49
2022/01/05 06:49:42;;;;;;;4.53;3.45;;;;;;;10.59;70.77;99945.81;4919614;28;102244;-49
2022/01/05 06:52:11;;;;;;;5.93;3.65;;;;;;;10.60;70.51;99946.63;4937415;28;102226;-49
2022/01/05 06:54:38;;;;;;;3.42;3.13;;;;;;;10.60;70.29;99946.63;4942619;28;104039;-49
2022/01/05 06:57:07;;;;;;;4.57;3.65;;;;;;;10.61;70.51;99944.75;4945574;28;102120;-49
2022/01/05 06:59:33;;;;;;;3.72;2.72;;;;;;;10.60;70.11;99949.34;4942931;28;102213;-49
2022/01/05 07:02:00;;;;;;;4.22;3.17;;;;;;;10.60;70.52;99941.19;4946674;28;102606;-50
2022/01/05 07:04:26;;;;;;;5.25;3.50;;;;;;;10.61;70.10;99942.81;4951697;28;103717;-49
2022/01/05 07:06:53;;;;;;;4.00;3.60;;;;;;;10.62;70.46;99949.06;4951698;28;102556;-49
2022/01/05 07:09:21;;;;;;;4.28;3.63;;;;;;;10.61;70.98;99953.72;4949427;28;102104;-49
2022/01/05 07:11:47;;;;;;;4.22;3.22;;;;;;;10.62;70.81;99955.31;4951627;28;102174;-50
2022/01/05 07:14:15;;;;;;;6.78;3.80;;;;;;;10.62;70.10;99960.75;4949963;28;104007;-49
2022/01/05 07:16:42;;;;;;;3.78;3.25;;;;;;;10.61;70.96;99959.16;4953350;28;102314;-49
2022/01/05 07:19:08;;;;;;;6.90;3.80;;;;;;;10.62;70.29;99960.75;4947812;28;102685;-49
2022/01/05 07:21:35;;;;;;;5.50;3.95;;;;;;;10.62;70.42;99954.50;4946725;28;102418;-50
2022/01/05 07:24:02;;;;;;;5.03;3.72;;;;;;;10.63;70.19;99967.00;4952316;28;103964;-49
2022/01/05 07:26:28;;;;;;;4.50;3.58;;;;;;;10.62;70.31;99970.84;4942603;28;102890;-49
2022/01/05 07:28:55;;;;;;;5.85;3.95;;;;;;;10.63;70.60;99977.88;4931120;28;105223;-50
2022/01/05 07:31:23;;;;;;;5.15;3.83;;;;;;;10.62;70.25;99977.09;4935672;28;102392;-50
2022/01/05 07:33:50;;;;;;;5.53;3.63;;;;;;;10.62;70.81;99981.72;4932997;28;103876;-49
2022/01/05 07:36:16;;;;;;;4.28;3.40;;;;;;;10.62;70.45;99982.53;4952106;28;102429;-49
2022/01/05 07:38:43;;;;;;;4.05;3.58;;;;;;;10.63;70.51;99983.34;4959386;28;102146;-49
2022/01/05 07:41:09;;;;;;;5.28;3.33;;;;;;;10.62;70.51;99979.81;4953839;28;104192;-49
2022/01/05 07:43:36;;;;;;;4.88;3.78;;;;;;;10.63;70.46;99977.88;4952488;28;104044;-49
2022/01/05 07:46:03;;;;;;;5.85;4.05;;;;;;;10.63;70.77;99988.78;4951154;28;102414;-49
2022/01/05 07:48:37;;;;;;;4.80;4.10;;;;;;;10.63;70.21;99986.84;4951708;28;102473;-49
2022/01/05 07:51:03;;;;;;;5.07;4.00;;;;;;;10.63;70.27;99992.31;4948950;28;102702;-49
2022/01/05 07:53:30;;;;;;;7.78;4.70;;;;;;;10.64;70.71;99991.22;4951117;28;103891;-50
2022/01/05 07:55:56;;;;;;;6.68;4.53;;;;;;;10.63;70.53;99989.59;4952549;28;102297;-49
2022/01/05 07:58:23;;;;;;;5.30;4.50;;;;;;;10.63;70.75;99989.59;4951365;28;102059;-49
2022/01/05 08:00:50;;;;;;;6.55;4.53;;;;;;;10.64;70.38;99991.22;4954242;28;102518;-49
2022/01/05 08:03:16;;;;;;;5.68;4.47;;;;;;;10.64;70.76;99991.22;4949008;28;103907;-48
2022/01/05 08:05:44;;;;;;;7.10;4.35;;;;;;;10.63;70.76;100005.91;4953561;28;102519;-49
2022/01/05 08:08:10;;;;;;;7.07;4.82;;;;;;;10.64;70.69;100002.13;4954605;28;104139;-49
2022/01/05 08:10:37;;;;;;;6.70;4.97;;;;;;;10.64;70.53;99996.66;4954582;28;102399;-49
2022/01/05 08:13:04;;;;;;;6.10;4.68;;;;;;;10.64;70.29;100012.16;4953803;28;103895;-49
2022/01/05 08:15:30;;;;;;;5.32;4.30;;;;;;;10.64;70.38;100004.84;4938586;28;104196;-48
2022/01/05 08:17:59;;;;;;;;;;;;;;;10.65;70.68;100009.16;4943071;28;102448;-47
2022/01/05 08:20:26;;;;;;;7.63;5.75;;;;;;;10.64;70.49;99999.38;4953557;28;102626;-48
2022/01/05 08:22:54;;;;;;;9.80;6.30;;;;;;;10.64;70.31;100010.28;4953174;28;104407;-47
2022/01/05 08:25:21;;;;;;;10.52;7.68;;;;;;;10.64;70.67;100018.44;4951926;28;102966;-48
2022/01/05 08:27:48;;;;;;;10.77;8.10;;;;;;;10.63;70.26;100011.34;4950452;28;102517;-47
2022/01/05 08:30:16;;;;;;;11.60;7.10;;;;;;;10.63;70.25;99995.03;4951188;28;102480;-46
2022/01/05 08:32:42;;;;;;;9.85;7.95;;;;;;;10.63;70.59;99995.03;4937942;28;104026;-46
2022/01/05 08:35:10;;;;;;;12.25;8.65;;;;;;;10.61;70.03;99986.34;4957508;22;102826;-46
2022/01/05 08:37:37;;;;;;;10.82;8.70;;;;;;;10.61;70.36;99983.63;4934253;28;103563;-49
2022/01/05 08:40:07;;;;;;;11.23;8.10;;;;;;;10.60;70.26;99990.16;4937547;28;102157;-46
2022/01/05 08:42:35;;;;;;;13.95;8.70;;;;;;;10.59;70.20;99996.72;4954574;28;102790;-48
2022/01/05 08:45:01;;;;;;;10.30;8.07;;;;;;;10.59;70.72;99993.97;4935538;28;102840;-51
2022/01/05 08:47:27;;;;;;;11.07;7.95;;;;;;;10.58;70.18;99981.50;4936335;28;102383;-49
2022/01/05 08:49:54;;;;;;;9.77;7.82;;;;;;;10.57;69.97;99972.53;4934963;28;102193;-50
2022/01/05 08:52:20;;;;;;;7.97;6.75;;;;;;;10.57;70.58;99966.28;4938422;28;103894;-47
2022/01/05 08:54:47;;;;;;;10.25;7.68;;;;;;;10.56;70.31;99960.00;4934533;28;102186;-48
2022/01/05 08:57:16;;;;;;;8.13;6.60;;;;;;;10.56;70.14;99961.91;4949215;28;103686;-46
2022/01/05 08:59:44;;;;;;;11.00;8.15;;;;;;;10.54;70.12;99964.13;4942079;28;102203;-47
2022/01/05 09:02:15;;;;;;;86.85;11.77;;;;;;;10.54;69.93;99973.09;4932889;28;103869;-49
2022/01/05 09:04:41;;;;;;;11.55;8.05;;;;;;;10.54;70.24;99964.13;4932817;28;102958;-49
2022/01/05 09:07:11;;;;;;;37.00;12.13;;;;;;;10.54;70.13;99967.66;4939353;28;102423;-50
2022/01/05 09:09:40;;;;;;;31.67;12.13;;;;;;;10.52;70.19;99950.78;4933810;28;102226;-50
2022/01/05 09:12:08;;;;;;;11.50;9.70;;;;;;;10.52;70.44;99950.78;4936390;28;104315;-52
2022/01/05 09:14:37;;;;;;;35.55;12.07;;;;;;;10.53;70.23;99946.16;4937746;28;102459;-51
2022/01/05 09:17:04;;;;;;;19.05;11.00;;;;;;;10.51;69.86;99938.31;4935197;28;103487;-52
2022/01/05 09:19:30;;;;;;;13.95;10.00;;;;;;;10.51;70.34;99940.22;4938813;28;102197;-52
2022/01/05 09:21:57;;;;;;;12.18;9.57;;;;;;;10.52;69.87;99936.38;4934616;28;103987;-52
2022/01/05 09:24:25;;;;;;;12.48;8.88;;;;;;;10.51;69.80;99926.63;4955109;28;102236;-52
2022/01/05 09:26:51;;;;;;;13.43;8.85;;;;;;;10.51;69.82;99932.84;4952967;28;102371;-52
2022/01/05 09:29:18;;;;;;;16.45;11.18;;;;;;;10.51;70.10;99937.50;4956320;28;102600;-53
2022/01/05 09:31:46;;;;;;;14.25;10.43;;;;;;;10.50;70.18;99927.72;4955643;28;107817;-51
2022/01/05 09:34:12;;;;;;;16.77;10.50;;;;;;;10.49;69.74;99939.69;4934423;28;102819;-52
2022/01/05 09:36:44;;;;;;;16.48;10.77;;;;;;;10.49;69.69;99929.59;4935253;28;102425;-51
2022/01/05 09:42:05;;;;;;;12.30;8.88;;;;;;;10.49;69.91;99945.13;4940868;28;103714;-52
2022/01/05 09:44:35;;;;;;;14.05;9.55;;;;;;;10.49;70.13;99942.41;4955210;28;102375;-52
2022/01/05 09:47:29;;;;;;;10.52;8.77;;;;;;;10.48;70.02;99938.06;4955092;28;102138;-52
2022/01/05 09:50:00;;;;;;;11.40;8.57;;;;;;;10.49;70.29;99942.41;4946130;28;102148;-52
2022/01/05 09:52:27;;;;;;;12.65;9.00;;;;;;;10.47;70.06;99942.69;4944790;28;103912;-52
2022/01/05 09:54:54;;;;;;;11.85;8.15;;;;;;;10.49;70.04;99950.56;4941231;28;102105;-52
2022/01/05 09:57:21;;;;;;;11.63;8.23;;;;;;;10.47;69.70;99948.16;4934885;28;102369;-52
2022/01/05 09:59:48;;;;;;;10.13;7.32;;;;;;;10.47;69.90;99953.59;4944290;28;102578;-52
2022/01/05 10:02:17;;;;;;;9.32;7.32;;;;;;;10.47;70.07;99952.78;4941315;28;104459;-52
2022/01/05 10:04:44;;;;;;;10.43;7.78;;;;;;;10.46;69.68;99945.72;4936124;28;102223;-52
2022/01/05 10:07:12;;;;;;;10.20;7.35;;;;;;;10.47;69.69;99947.34;4935178;28;102197;-52
2022/01/05 10:09:40;;;;;;;9.30;7.40;;;;;;;10.46;70.09;99946.53;4930635;28;102616;-53
2022/01/05 10:12:08;;;;;;;11.10;7.72;;;;;;;10.45;69.82;99947.59;4960030;28;104624;-52
2022/01/05 10:14:34;;;;;;;9.93;7.70;;;;;;;10.46;69.86;99934.84;4932412;28;102208;-52
2022/01/05 10:17:03;;;;;;;9.93;7.25;;;;;;;10.46;69.70;99941.09;4930326;28;102432;-52
2022/01/05 10:19:32;;;;;;;11.02;7.88;;;;;;;10.46;69.36;99929.41;4935204;28;104294;-52
2022/01/05 10:21:59;;;;;;;7.75;6.78;;;;;;;10.47;70.06;99937.25;4933302;28;103969;-52
2022/01/05 10:24:46;;;;;;;8.10;6.90;;;;;;;10.47;69.42;99934.53;4945996;28;103136;-52
2022/01/05 10:27:16;;;;;;;9.73;6.80;;;;;;;10.49;69.53;99934.25;4949478;28;102262;-52
2022/01/05 10:29:54;;;;;;;9.80;7.18;;;;;;;10.49;69.65;99923.34;4954448;28;102621;-52
2022/01/05 10:32:21;;;;;;;9.07;7.38;;;;;;;10.49;69.41;99918.72;4949319;28;108294;-52
2022/01/05 10:35:08;;;;;;;10.10;7.82;;;;;;;10.50;70.07;99914.13;4952189;28;102594;-52
2022/01/05 10:37:37;;;;;;;10.20;7.15;;;;;;;10.51;69.92;99911.09;4936390;28;102595;-52
2022/01/05 10:40:17;;;;;;;9.63;7.38;;;;;;;10.52;69.75;99909.19;4940387;28;102171;-52
2022/01/05 10:42:44;;;;;;;9.68;7.30;;;;;;;10.53;69.89;99908.06;4937843;28;103903;-52
2022/01/05 10:45:12;;;;;;;9.57;7.28;;;;;;;10.53;69.99;99899.91;4939378;28;102335;-52
2022/01/05 10:47:40;;;;;;;9.90;7.18;;;;;;;10.54;70.02;99893.38;4936878;28;102437;-52
2022/01/05 10:50:20;;;;;;;8.48;7.20;;;;;;;10.55;70.01;99892.28;4935398;28;102334;-52
2022/01/05 10:52:54;;;;;;;9.25;7.13;;;;;;;10.56;69.60;99891.16;4938273;28;104005;-52
2022/01/05 10:55:24;;;;;;;9.52;7.35;;;;;;;10.57;69.67;99887.38;4938089;28;102192;-52
2022/01/05 10:57:57;;;;;;;;;;;;;;;10.58;69.95;99888.97;4938579;28;102120;-52
2022/01/05 11:00:38;;;;;;;9.60;7.38;;;;;;;10.58;70.27;99872.66;4939090;28;102247;-52
2022/01/05 11:03:23;;;;;;;8.57;6.38;;;;;;;10.59;70.23;99879.72;4938614;28;104028;-52
2022/01/05 11:06:08;;;;;;;9.88;7.18;;;;;;;10.61;69.92;99880.25;4939741;28;102494;-52
2022/01/05 11:08:50;;;;;;;10.35;6.72;;;;;;;10.60;69.56;99875.88;4935424;28;102447;-52
2022/01/05 11:11:35;;;;;;;9.73;6.53;;;;;;;10.60;69.96;99870.44;4942754;28;102109;-52
2022/01/05 11:14:02;;;;;;;9.00;6.40;;;;;;;10.62;69.56;99872.88;4935721;28;103973;-52
2022/01/05 11:16:29;;;;;;;9.43;6.30;;;;;;;10.63;69.80;99874.50;4936856;28;102598;-52
2022/01/05 11:19:13;;;;;;;8.73;6.70;;;;;;;10.65;69.81;99856.78;4948470;28;102168;-52
2022/01/05 11:21:55;;;;;;;9.73;6.43;;;;;;;10.65;69.78;99843.19;4955024;28;102362;-52
2022/01/05 11:24:23;;;;;;;9.43;6.65;;;;;;;10.67;69.68;99849.13;4956505;28;104123;-52
2022/01/05 11:26:49;;;;;;;7.38;6.50;;;;;;;10.68;70.13;99849.94;4957249;28;102537;-52
2022/01/05 11:29:16;;;;;;;9.75;7.00;;;;;;;10.69;69.72;99848.84;4944472;28;102443;-52